Time;durP1;ratioP1;P1;durP2;ratioP2;P2;SDS_P1;SDS_P2;PMS_P1;PMS_P2;Temp;Humidity;BMP_temperature;BMP_pressure;BME280_temperature;BME280_humidity;BME280_pressure;Samples;Min_cycle;Max_cycle;Signal;HPM_P1;HPM_P2
2021/07/23 00:01:35;;;;;;;30.60;10.70;;;;;;;19.42;58.25;97072.97;5002171;28;20069;-67
2021/07/23 00:04:02;;;;;;;8.95;5.00;;;;;;;19.32;58.95;97073.94;5003546;28;20049;-66
2021/07/23 00:06:32;;;;;;;8.57;5.22;;;;;;;19.38;58.96;97075.03;5001981;28;20098;-65
2021/07/23 00:08:59;;;;;;;10.63;4.97;;;;;;;19.40;58.94;97067.78;5002002;28;20062;-66
2021/07/23 00:11:25;;;;;;;4.60;3.88;;;;;;;19.46;58.77;97071.69;5019010;28;20057;-66
2021/07/23 00:13:52;;;;;;;8.10;4.53;;;;;;;19.58;58.30;97069.50;5002038;28;20556;-67
2021/07/23 00:16:19;;;;;;;9.02;4.00;;;;;;;19.54;58.37;97059.13;5003376;28;20145;-66
2021/07/23 00:18:46;;;;;;;7.25;4.20;;;;;;;19.51;58.85;97071.22;5003216;28;20054;-67
2021/07/23 00:21:12;;;;;;;5.65;4.50;;;;;;;19.45;58.80;97072.13;5007386;28;20057;-67
2021/07/23 00:23:39;;;;;;;7.18;3.80;;;;;;;19.33;59.07;97059.47;5007379;28;20058;-67
2021/07/23 00:26:13;;;;;;;6.97;4.00;;;;;;;19.13;58.64;97021.28;5005780;28;20141;-67
2021/07/23 00:28:40;;;;;;;4.70;4.00;;;;;;;19.10;58.84;97028.56;5006260;28;20060;-65
2021/07/23 00:31:07;;;;;;;6.13;4.22;;;;;;;19.07;58.87;97020.97;5006755;28;20531;-65
2021/07/23 00:33:34;;;;;;;7.15;4.75;;;;;;;19.36;58.60;97067.03;5005937;28;20046;-66
2021/07/23 00:36:01;;;;;;;9.05;4.32;;;;;;;19.18;58.91;97058.09;5021733;28;20405;-66
2021/07/23 00:38:28;;;;;;;7.00;4.40;;;;;;;18.82;59.10;97006.56;5005675;28;20049;-67
2021/07/23 00:40:55;;;;;;;16.10;4.75;;;;;;;19.03;60.04;97056.72;5006820;28;20528;-67
2021/07/23 00:43:22;;;;;;;6.15;3.85;;;;;;;18.38;59.86;96970.38;5005784;28;20057;-67
2021/07/23 00:45:49;;;;;;;5.25;3.72;;;;;;;18.62;59.97;96991.63;5006023;28;20057;-66
2021/07/23 00:48:16;;;;;;;5.40;3.78;;;;;;;18.89;59.65;97040.13;5007531;28;20058;-66
2021/07/23 00:50:43;;;;;;;4.80;4.13;;;;;;;18.96;59.36;97062.47;5005448;28;20054;-67
2021/07/23 00:53:10;;;;;;;5.32;3.80;;;;;;;18.85;60.51;97061.03;5005219;28;20061;-67
2021/07/23 00:55:39;;;;;;;5.53;4.50;;;;;;;18.94;59.83;97056.47;5007072;28;20053;-66
2021/07/23 00:58:06;;;;;;;4.55;3.85;;;;;;;18.59;60.08;96995.28;5021733;28;20058;-66
2021/07/23 01:00:33;;;;;;;5.15;3.88;;;;;;;18.72;60.31;97035.56;5006614;28;20574;-66
2021/07/23 01:03:00;;;;;;;5.80;4.03;;;;;;;18.62;60.23;97016.09;5005348;28;20435;-67
2021/07/23 01:05:28;;;;;;;5.47;4.03;;;;;;;18.48;60.68;97014.28;5006924;28;20598;-68
2021/07/23 01:07:55;;;;;;;6.95;4.22;;;;;;;18.68;61.01;97054.47;5007036;28;20053;-66
2021/07/23 01:10:21;;;;;;;5.28;4.05;;;;;;;18.57;61.57;97059.47;5004771;28;20433;-67
2021/07/23 01:12:49;;;;;;;4.57;3.90;;;;;;;18.55;61.61;97067.50;5004864;28;20148;-66
2021/07/23 01:15:16;;;;;;;5.82;4.22;;;;;;;16.54;61.43;96741.44;5021231;28;20509;-67
2021/07/23 01:17:43;;;;;;;4.32;3.90;;;;;;;18.29;61.94;97017.72;5004956;28;20517;-67
2021/07/23 01:20:23;;;;;;;5.25;3.80;;;;;;;18.32;61.89;97028.09;5004864;28;20140;-67
2021/07/23 01:22:51;;;;;;;6.45;3.85;;;;;;;18.41;63.18;97059.28;5006666;28;20057;-66
2021/07/23 01:25:19;;;;;;;4.53;4.03;;;;;;;18.17;63.97;97004.28;5005247;28;20054;-65
2021/07/23 01:27:50;;;;;;;8.32;4.15;;;;;;;18.49;63.55;97108.47;5006468;28;20062;-66
2021/07/23 01:30:21;;;;;;;5.13;4.45;;;;;;;18.51;63.79;97058.31;5003952;28;20090;-66
2021/07/23 01:32:48;;;;;;;8.38;4.70;;;;;;;18.44;64.19;97047.22;5004568;28;20060;-67
2021/07/23 01:35:15;;;;;;;5.28;4.43;;;;;;;18.46;63.57;97044.78;5004578;28;20136;-67
2021/07/23 01:37:45;;;;;;;7.80;4.78;;;;;;;18.47;62.97;97051.97;5006180;28;20128;-67
2021/07/23 01:40:13;;;;;;;6.68;4.50;;;;;;;18.50;63.08;97039.91;5004404;28;20164;-67
2021/07/23 01:42:45;;;;;;;5.82;4.03;;;;;;;18.60;62.67;97050.19;5005145;28;20219;-67
2021/07/23 01:45:12;;;;;;;6.07;4.30;;;;;;;18.50;62.60;97041.91;5004463;28;20057;-67
2021/07/23 01:47:39;;;;;;;4.10;3.58;;;;;;;18.15;62.74;97001.09;5006218;28;20062;-67
2021/07/23 01:50:06;;;;;;;5.00;3.85;;;;;;;18.46;62.25;97050.41;5004317;28;20057;-67
2021/07/23 01:52:34;;;;;;;4.95;4.03;;;;;;;18.01;62.29;96985.25;5005450;28;20065;-67
2021/07/23 01:55:02;;;;;;;7.00;4.68;;;;;;;17.82;64.92;97049.56;5005664;28;20124;-68
2021/07/23 01:57:29;;;;;;;5.97;4.13;;;;;;;18.06;64.32;97051.28;5005597;28;20054;-67
2021/07/23 01:59:56;;;;;;;8.25;4.50;;;;;;;17.83;64.26;96995.13;5004482;28;20613;-67
2021/07/23 02:02:22;;;;;;;6.55;4.10;;;;;;;18.06;63.90;97040.06;5005958;28;20823;-67
2021/07/23 02:04:49;;;;;;;5.82;4.03;;;;;;;18.15;62.81;97023.50;5005864;28;20050;-67
2021/07/23 02:07:16;;;;;;;4.75;3.90;;;;;;;18.24;62.58;97032.19;5003906;28;20086;-67
2021/07/23 02:09:43;;;;;;;6.80;4.00;;;;;;;17.95;63.10;97000.97;5005528;28;20065;-67
2021/07/23 02:12:10;;;;;;;6.28;3.88;;;;;;;17.96;64.09;97038.16;5020286;28;20077;-67
2021/07/23 02:14:37;;;;;;;6.35;3.95;;;;;;;17.97;64.22;97045.38;5005109;28;20050;-66
2021/07/23 02:17:03;;;;;;;4.38;3.97;;;;;;;17.96;64.13;97044.59;5004149;28;20061;-67
2021/07/23 02:19:30;;;;;;;5.43;3.90;;;;;;;17.44;67.14;96995.53;5005788;28;20576;-68
2021/07/23 02:21:57;;;;;;;9.02;4.32;;;;;;;17.59;67.41;97024.97;5005488;28;20049;-68
2021/07/23 02:24:23;;;;;;;8.98;4.80;;;;;;;16.66;72.08;97021.81;5003675;28;20785;-68
2021/07/23 02:26:50;;;;;;;8.65;4.70;;;;;;;17.02;71.20;97042.72;5003789;28;20060;-67
2021/07/23 02:29:17;;;;;;;7.75;5.55;;;;;;;17.18;70.05;97037.38;5020107;28;20510;-67
2021/07/23 02:31:43;;;;;;;5.80;4.53;;;;;;;17.35;69.38;97031.63;5004828;28;20064;-67
2021/07/23 02:34:11;;;;;;;5.82;3.72;;;;;;;17.28;69.45;97048.47;5005087;28;20487;-68
2021/07/23 02:36:37;;;;;;;5.68;4.10;;;;;;;17.22;69.57;97036.13;5005101;28;20089;-67
2021/07/23 02:39:04;;;;;;;4.78;4.25;;;;;;;17.28;68.44;97044.88;5005490;28;20175;-66
2021/07/23 02:41:31;;;;;;;6.05;4.38;;;;;;;17.21;68.83;97033.75;5002807;28;20053;-67
2021/07/23 02:43:58;;;;;;;4.60;4.20;;;;;;;17.24;68.88;97038.50;5002896;28;20057;-67
2021/07/23 02:46:24;;;;;;;16.00;4.32;;;;;;;16.62;68.39;96943.50;5004848;28;20068;-66
2021/07/23 02:48:51;;;;;;;5.97;3.95;;;;;;;17.26;67.94;97034.09;5004754;28;20049;-66
2021/07/23 02:51:18;;;;;;;5.28;3.60;;;;;;;17.33;67.41;97048.03;5002938;28;20054;-66
2021/07/23 02:53:44;;;;;;;5.60;4.10;;;;;;;17.32;67.45;97054.03;5004060;28;20060;-66
2021/07/23 02:56:11;;;;;;;7.90;4.22;;;;;;;17.01;67.89;96994.31;5004657;28;20054;-65
2021/07/23 02:58:43;;;;;;;7.43;4.43;;;;;;;17.35;67.66;97042.00;5003719;28;20058;-66
2021/07/23 03:01:10;;;;;;;7.88;4.75;;;;;;;16.95;68.42;97006.38;5004704;28;20061;-68
2021/07/23 03:03:38;;;;;;;6.65;4.28;;;;;;;17.23;68.43;97040.50;5018946;28;20384;-66
2021/07/23 03:06:04;;;;;;;6.22;4.50;;;;;;;17.24;67.87;97046.91;5004109;28;20060;-66
2021/07/23 03:08:31;;;;;;;5.60;4.50;;;;;;;17.13;68.58;97038.63;5004414;28;20054;-67
2021/07/23 03:10:58;;;;;;;10.07;4.38;;;;;;;17.17;68.59;97032.97;5002902;28;20054;-66
2021/07/23 03:13:24;;;;;;;9.98;5.05;;;;;;;17.19;68.21;97050.16;5004094;28;20069;-66
2021/07/23 03:15:51;;;;;;;9.18;5.07;;;;;;;17.06;68.74;97037.88;5004511;28;20049;-68
2021/07/23 03:18:18;;;;;;;5.78;4.38;;;;;;;17.06;68.92;97035.06;5004401;28;20060;-68
2021/07/23 03:20:45;;;;;;;6.22;4.38;;;;;;;16.73;68.99;96993.75;5000244;28;20060;-68
2021/07/23 03:23:11;;;;;;;5.32;4.30;;;;;;;16.68;69.19;97019.41;5004631;28;20052;-68
2021/07/23 03:25:38;;;;;;;5.57;4.30;;;;;;;16.96;69.70;97041.56;5004103;28;20508;-67
2021/07/23 03:28:06;;;;;;;9.05;4.18;;;;;;;17.10;68.96;97042.25;5018952;28;20053;-68
2021/07/23 03:30:33;;;;;;;8.15;4.55;;;;;;;17.16;69.03;97067.78;5003758;28;20054;-68
2021/07/23 03:33:00;;;;;;;7.53;4.50;;;;;;;16.76;69.96;97009.72;5004161;28;20057;-67
2021/07/23 03:35:28;;;;;;;9.10;4.25;;;;;;;16.73;69.55;96988.16;5003572;28;20575;-66
2021/07/23 03:37:54;;;;;;;9.27;4.60;;;;;;;17.02;69.40;97028.72;5004370;28;20053;-67
2021/07/23 03:40:21;;;;;;;6.20;4.10;;;;;;;17.11;68.96;97038.22;5003046;28;20076;-68
2021/07/23 03:42:48;;;;;;;6.28;4.10;;;;;;;17.21;68.08;97048.56;5004214;28;20056;-67
2021/07/23 03:45:15;;;;;;;6.20;4.57;;;;;;;17.31;67.55;97058.84;5003742;28;20065;-67
2021/07/23 03:47:42;;;;;;;6.05;4.25;;;;;;;17.39;67.09;97053.97;5003683;28;20084;-66
2021/07/23 03:50:09;;;;;;;6.28;4.15;;;;;;;17.42;67.20;97048.34;5002040;28;20050;-67
2021/07/23 03:52:35;;;;;;;6.78;4.45;;;;;;;17.11;68.02;96987.03;5003415;28;20093;-67
2021/07/23 03:55:02;;;;;;;5.60;4.25;;;;;;;17.62;67.70;97045.78;5001797;28;20058;-67
2021/07/23 03:57:29;;;;;;;10.45;4.32;;;;;;;17.78;66.13;97048.81;5018419;28;20056;-66
2021/07/23 03:59:56;;;;;;;9.60;4.63;;;;;;;17.92;65.62;97043.03;5004091;28;20128;-67
2021/07/23 04:02:22;;;;;;;9.27;4.20;;;;;;;17.89;65.43;97063.50;5018732;28;20056;-67
2021/07/23 04:04:49;;;;;;;5.90;4.47;;;;;;;17.49;64.99;96980.28;5003896;28;20061;-67
2021/07/23 04:07:16;;;;;;;8.05;4.15;;;;;;;18.19;64.46;97046.72;5002138;28;20133;-67
2021/07/23 04:09:44;;;;;;;6.18;4.13;;;;;;;18.27;64.69;97048.22;5002257;28;20061;-67
2021/07/23 04:12:10;;;;;;;7.18;4.60;;;;;;;18.48;64.28;97036.72;5003197;28;20058;-67
2021/07/23 04:14:37;;;;;;;7.47;4.20;;;;;;;18.13;63.60;97004.31;5002429;28;20664;-67
2021/07/23 04:17:04;;;;;;;9.07;4.78;;;;;;;18.40;62.93;96967.13;5002375;28;20139;-67
2021/07/23 04:19:31;;;;;;;10.52;5.40;;;;;;;18.90;62.44;97036.09;5003795;28;20050;-67
2021/07/23 04:21:57;;;;;;;10.95;4.22;;;;;;;18.55;62.13;96969.28;5002484;28;20060;-66
2021/07/23 04:24:24;;;;;;;7.82;3.97;;;;;;;18.87;61.70;97000.47;5003302;28;20060;-66
2021/07/23 04:26:51;;;;;;;8.45;4.45;;;;;;;19.18;61.48;97046.88;5003485;28;20053;-67
2021/07/23 04:29:18;;;;;;;6.05;5.25;;;;;;;19.25;61.41;97041.13;5018199;28;20065;-67
2021/07/23 04:31:44;;;;;;;7.40;4.97;;;;;;;19.12;61.47;97002.84;5003269;28;20045;-66
2021/07/23 04:34:11;;;;;;;8.20;5.53;;;;;;;19.58;61.46;97052.63;5018226;28;20112;-65
2021/07/23 04:36:38;;;;;;;13.13;6.80;;;;;;;19.81;60.53;97049.78;5018342;28;20050;-64
2021/07/23 04:39:04;;;;;;;13.27;6.05;;;;;;;19.83;60.47;97036.09;5003634;28;20050;-66
2021/07/23 04:41:31;;;;;;;15.65;5.38;;;;;;;19.56;60.99;97022.16;5003094;28;20057;-66
2021/07/23 04:43:58;;;;;;;13.82;4.85;;;;;;;19.73;60.15;97048.34;5017786;28;20057;-66
2021/07/23 04:46:25;;;;;;;12.82;5.15;;;;;;;19.54;62.89;97053.50;5001647;28;20064;-66
2021/07/23 04:48:52;;;;;;;18.00;6.60;;;;;;;18.88;62.28;96940.28;5003520;28;20089;-65
2021/07/23 04:51:18;;;;;;;12.45;4.90;;;;;;;19.89;60.23;97034.34;5003077;28;20072;-66
2021/07/23 04:53:47;;;;;;;13.35;4.70;;;;;;;20.10;59.27;97040.38;5002493;28;20061;-66
2021/07/23 04:56:13;;;;;;;8.23;4.93;;;;;;;20.31;58.47;97027.91;5001449;28;20060;-66
2021/07/23 04:58:40;;;;;;;8.20;4.85;;;;;;;20.46;58.27;97037.63;5017853;28;20127;-67
2021/07/23 05:01:07;;;;;;;8.05;4.53;;;;;;;20.24;57.34;96977.41;5017549;28;20410;-68
2021/07/23 05:03:38;;;;;;;9.10;4.80;;;;;;;20.54;56.99;97006.09;5017538;28;20078;-69
2021/07/23 05:06:08;;;;;;;10.68;4.50;;;;;;;20.81;57.10;97017.91;5004819;28;20076;-68
2021/07/23 05:08:35;;;;;;;12.45;5.85;;;;;;;20.81;57.76;97042.47;5006016;28;20057;-69
2021/07/23 05:11:07;;;;;;;10.38;5.65;;;;;;;21.07;57.58;97030.19;5021190;28;20058;-67
2021/07/23 05:13:35;;;;;;;6.32;4.43;;;;;;;20.88;56.55;96994.44;5006257;28;20132;-66
2021/07/23 05:16:03;;;;;;;6.63;4.43;;;;;;;21.09;57.20;97038.22;5020961;28;20593;-68
2021/07/23 05:18:31;;;;;;;6.53;4.50;;;;;;;21.25;55.38;97041.81;5020938;28;20116;-66
2021/07/23 05:20:58;;;;;;;11.95;6.72;;;;;;;21.22;56.67;97031.44;5006212;28;20062;-66
2021/07/23 05:23:25;;;;;;;7.43;4.60;;;;;;;21.48;55.56;97035.97;5005937;28;20547;-67
2021/07/23 05:25:51;;;;;;;8.60;4.50;;;;;;;21.29;55.54;97036.91;5005973;28;20061;-67
2021/07/23 05:28:19;;;;;;;7.88;4.45;;;;;;;20.60;57.12;96955.69;5020576;28;20568;-66
2021/07/23 05:31:03;;;;;;;7.35;4.53;;;;;;;21.20;55.82;97004.94;5005546;28;20453;-67
2021/07/23 05:33:30;;;;;;;8.10;4.68;;;;;;;21.18;55.33;96957.50;5004610;28;20054;-67
2021/07/23 05:35:57;;;;;;;6.20;4.15;;;;;;;21.99;53.32;97029.41;5005938;28;20128;-66
2021/07/23 05:38:23;;;;;;;11.27;5.50;;;;;;;21.87;54.67;97037.81;5006294;28;20061;-65
2021/07/23 05:40:50;;;;;;;10.18;4.60;;;;;;;21.49;56.81;97040.41;5004134;28;20050;-65
2021/07/23 05:43:19;;;;;;;11.68;4.82;;;;;;;21.67;56.63;97035.06;5004223;28;20124;-69
2021/07/23 05:45:46;;;;;;;10.25;4.40;;;;;;;21.99;55.70;97022.94;5020579;28;20045;-66
2021/07/23 05:48:13;;;;;;;8.07;4.82;;;;;;;22.40;55.58;97043.53;5006025;28;20078;-66
2021/07/23 05:50:39;;;;;;;14.10;5.93;;;;;;;22.28;54.95;97001.97;5020523;28;20509;-65
2021/07/23 05:53:06;;;;;;;5.78;3.78;;;;;;;22.27;54.27;97056.81;5005500;28;20513;-65
2021/07/23 05:55:33;;;;;;;7.00;4.65;;;;;;;22.21;53.80;96973.94;5004266;28;20065;-67
2021/07/23 05:58:00;;;;;;;7.03;4.95;;;;;;;22.62;53.14;96956.16;5005872;28;20064;-68
2021/07/23 06:00:27;;;;;;;5.50;4.28;;;;;;;23.33;50.81;97009.13;5005144;28;20533;-66
2021/07/23 06:02:54;;;;;;;7.75;6.22;;;;;;;23.36;50.71;96967.88;5003852;28;20078;-66
2021/07/23 06:05:21;;;;;;;5.43;4.50;;;;;;;23.85;49.75;97034.78;5004818;28;20537;-67
2021/07/23 06:07:48;;;;;;;5.97;4.90;;;;;;;24.12;48.95;97034.28;5005363;28;20062;-65
2021/07/23 06:10:15;;;;;;;7.45;4.80;;;;;;;24.04;48.26;96996.16;5005514;28;20057;-66
2021/07/23 06:12:42;;;;;;;5.70;4.65;;;;;;;23.71;47.96;96960.97;5003806;28;20145;-66
2021/07/23 06:15:09;;;;;;;6.20;4.95;;;;;;;23.18;48.37;96905.47;5019962;28;20056;-65
2021/07/23 06:17:36;;;;;;;7.97;5.20;;;;;;;24.05;49.06;97019.59;5005258;28;20053;-68
2021/07/23 06:20:04;;;;;;;7.75;5.32;;;;;;;24.11;48.59;97023.41;5019886;28;20076;-68
2021/07/23 06:22:31;;;;;;;5.47;4.72;;;;;;;24.31;48.44;97021.06;5019593;28;20054;-67
2021/07/23 06:24:58;;;;;;;10.25;5.90;;;;;;;24.17;49.01;97028.00;5019922;28;20097;-67
2021/07/23 06:48:46;;;;;;;8.80;6.10;;;;;;;24.59;45.47;97032.09;5119040;27;20400;-66
2021/07/23 06:51:14;;;;;;;8.20;5.50;;;;;;;24.67;45.78;97016.44;5119201;27;20055;-63
2021/07/23 06:53:40;;;;;;;12.18;6.18;;;;;;;25.17;45.42;97038.72;5119171;28;20059;-64
2021/07/23 06:56:07;;;;;;;6.03;5.47;;;;;;;23.66;44.59;96743.75;5118300;27;20051;-67
2021/07/23 06:58:34;;;;;;;7.32;5.00;;;;;;;25.18;44.56;96972.22;5118688;28;20051;-62
2021/07/23 07:01:06;;;;;;;7.75;5.22;;;;;;;25.95;43.30;97019.22;5120020;28;20060;-65
2021/07/23 07:03:33;;;;;;;8.18;7.47;;;;;;;26.08;43.68;97017.00;5125722;27;20058;-66
2021/07/23 07:06:02;;;;;;;8.65;5.25;;;;;;;25.76;43.23;97005.47;5098902;28;20052;-69
2021/07/23 07:08:29;;;;;;;6.88;5.30;;;;;;;25.97;42.65;96981.81;5097252;28;20528;-68
2021/07/23 07:11:01;;;;;;;6.88;5.85;;;;;;;25.98;42.76;96933.09;5117985;28;20148;-67
2021/07/23 07:13:28;;;;;;;7.25;5.80;;;;;;;26.31;41.30;96970.94;5118451;27;20107;-67
2021/07/23 07:15:55;;;;;;;6.38;5.78;;;;;;;26.79;41.39;97014.59;5117840;27;20468;-66
2021/07/23 07:18:22;;;;;;;7.32;5.78;;;;;;;26.22;41.23;96982.31;5118456;27;20070;-64
2021/07/23 07:20:49;;;;;;;5.82;5.32;;;;;;;26.51;40.88;96976.09;5118047;27;20055;-64
2021/07/23 07:23:16;;;;;;;7.88;5.75;;;;;;;25.23;40.89;96730.59;5118630;28;20051;-66
2021/07/23 07:25:42;;;;;;;11.20;5.70;;;;;;;26.10;41.26;96917.94;5117726;28;20179;-65
2021/07/23 07:28:09;;;;;;;6.38;5.70;;;;;;;26.64;41.76;97013.66;5117551;28;20048;-66
2021/07/23 07:30:56;;;;;;;7.05;5.97;;;;;;;26.80;41.77;96989.78;5117204;28;20058;-65
2021/07/23 07:33:23;;;;;;;6.22;5.60;;;;;;;26.98;41.55;97010.41;5118294;27;20050;-63
2021/07/23 07:35:50;;;;;;;6.35;5.43;;;;;;;25.62;39.62;96731.66;5112373;28;20048;-66
2021/07/23 07:38:17;;;;;;;6.80;5.32;;;;;;;27.52;40.01;97003.69;5096910;28;20047;-67
2021/07/23 07:40:44;;;;;;;6.78;6.03;;;;;;;26.50;41.67;96997.25;5113143;28;20056;-67
2021/07/23 07:43:11;;;;;;;6.68;5.55;;;;;;;26.82;40.43;96939.72;5118607;27;20043;-64
2021/07/23 07:45:53;;;;;;;7.53;5.50;;;;;;;27.38;40.29;96999.50;5120249;28;20047;-61
2021/07/23 07:48:26;;;;;;;6.10;5.57;;;;;;;27.50;40.40;97000.53;5104921;28;20128;-61
2021/07/23 07:50:52;;;;;;;7.40;6.68;;;;;;;27.37;39.90;96997.94;5104859;27;20058;-61
2021/07/23 07:53:19;;;;;;;8.32;5.82;;;;;;;26.61;41.05;96952.06;5104722;28;20052;-62
2021/07/23 07:55:47;;;;;;;12.50;6.22;;;;;;;27.05;40.16;96946.69;5105775;28;20062;-61
2021/07/23 07:58:14;;;;;;;6.03;5.43;;;;;;;27.27;39.80;96999.25;5105054;28;20297;-61
2021/07/23 08:00:41;;;;;;;6.78;5.95;;;;;;;25.96;42.13;96985.91;5105142;28;20048;-60
2021/07/23 08:03:08;;;;;;;8.48;6.00;;;;;;;26.16;41.33;96995.56;5106662;28;20055;-60
2021/07/23 08:05:35;;;;;;;7.45;6.57;;;;;;;26.92;40.63;96989.56;5105940;27;20154;-60
2021/07/23 08:08:04;;;;;;;6.75;5.95;;;;;;;26.91;40.31;96947.41;5106449;28;20085;-61
2021/07/23 08:10:36;;;;;;;8.23;6.13;;;;;;;27.07;40.31;96998.19;5105278;28;20085;-63
2021/07/23 08:13:03;;;;;;;6.97;5.70;;;;;;;27.26;39.16;96918.00;5101575;28;20079;-62
2021/07/23 08:15:34;;;;;;;8.65;7.65;;;;;;;27.90;38.17;96978.16;5104601;28;20082;-59
2021/07/23 08:18:08;;;;;;;7.97;6.10;;;;;;;28.38;38.55;97024.41;5100125;28;20050;-64
2021/07/23 08:20:34;;;;;;;;;;;;;;;28.43;38.67;96986.69;5105462;28;20047;-62
2021/07/23 08:23:01;;;;;;;8.63;7.68;;;;;;;27.90;39.39;96992.41;5102387;28;19946;-61
2021/07/23 08:25:28;;;;;;;8.57;6.38;;;;;;;28.25;37.28;96919.25;5106056;28;20053;-66
2021/07/23 08:27:55;;;;;;;6.80;6.10;;;;;;;29.17;37.42;96974.78;5104681;28;20059;-66
2021/07/23 08:30:22;;;;;;;9.07;7.72;;;;;;;29.38;36.70;96947.88;5105708;28;20048;-66
2021/07/23 08:32:51;;;;;;;9.93;6.88;;;;;;;29.42;35.38;96892.13;5103348;28;20572;-64
2021/07/23 08:35:19;;;;;;;11.30;7.05;;;;;;;28.73;36.62;96894.19;5104325;28;20058;-66
2021/07/23 08:37:48;;;;;;;8.00;6.10;;;;;;;28.77;37.15;96971.78;5104502;28;20051;-65
2021/07/23 08:40:18;;;;;;;6.57;5.72;;;;;;;27.31;39.29;96977.09;5104673;28;20039;-63
2021/07/23 08:42:49;;;;;;;9.30;7.93;;;;;;;26.70;39.33;96886.69;5101892;28;20062;-64
2021/07/23 08:45:20;;;;;;;7.68;6.93;;;;;;;26.81;41.02;96975.06;5103122;28;20044;-62
2021/07/23 08:47:52;;;;;;;9.25;8.35;;;;;;;25.59;39.61;96718.41;5104093;27;20051;-62
2021/07/23 08:50:25;;;;;;;7.65;6.85;;;;;;;27.22;39.98;96979.19;5104538;28;20055;-63
2021/07/23 08:52:57;;;;;;;7.32;6.63;;;;;;;27.04;40.34;96965.84;5103563;28;20066;-65
2021/07/23 08:55:34;;;;;;;11.18;7.75;;;;;;;27.47;39.72;96971.00;5104099;28;20078;-61
2021/07/23 08:58:12;;;;;;;8.02;7.22;;;;;;;26.71;40.46;96928.84;5104117;28;20455;-67
2021/07/23 09:00:45;;;;;;;9.60;8.60;;;;;;;27.53;39.40;96971.91;5100094;28;20044;-62
2021/07/23 09:03:18;;;;;;;7.97;6.60;;;;;;;27.01;39.32;96924.13;5103593;28;20130;-64
2021/07/23 09:05:51;;;;;;;7.60;6.85;;;;;;;27.43;38.94;96964.69;5103967;28;20051;-64
2021/07/23 09:08:26;;;;;;;7.20;6.50;;;;;;;27.73;37.65;96945.66;5103831;28;20135;-62
2021/07/23 09:11:10;;;;;;;8.32;7.38;;;;;;;28.11;36.42;96966.41;5094247;28;20055;-63
2021/07/23 09:13:45;;;;;;;10.65;6.68;;;;;;;28.26;36.68;96962.78;5103353;28;20126;-62
2021/07/23 09:16:33;;;;;;;7.78;6.30;;;;;;;28.42;36.81;96959.47;5104408;28;20970;-64
2021/07/23 09:19:14;;;;;;;7.07;6.38;;;;;;;28.12;37.31;96953.72;5104637;28;20047;-62
2021/07/23 09:22:13;;;;;;;6.88;6.20;;;;;;;28.32;36.44;96898.13;5103973;28;20063;-62
2021/07/23 09:25:10;;;;;;;7.10;6.32;;;;;;;28.93;35.24;96932.13;5085748;28;20051;-62
2021/07/23 09:28:08;;;;;;;16.00;9.00;;;;;;;29.18;35.57;96945.75;5102320;28;20094;-65
2021/07/23 09:31:04;;;;;;;28.33;12.23;;;;;;;29.29;33.79;96865.25;5092109;28;20518;-63
2021/07/23 09:34:07;;;;;;;9.00;6.68;;;;;;;30.30;32.92;96932.47;5102269;28;20107;-64
2021/07/23 09:37:23;;;;;;;7.95;7.18;;;;;;;30.95;33.03;96928.63;5064751;28;20052;-66
2021/07/23 09:40:14;;;;;;;14.38;10.55;;;;;;;30.76;32.66;96930.31;5099404;28;20087;-63
2021/07/23 09:43:11;;;;;;;13.70;11.63;;;;;;;30.05;33.17;96927.47;5080281;28;20169;-64
2021/07/23 09:46:33;;;;;;;9.77;8.13;;;;;;;29.25;35.17;96933.16;5091970;28;20093;-66
2021/07/23 09:49:48;;;;;;;7.88;6.72;;;;;;;29.42;35.00;96937.03;5088883;28;20051;-64
2021/07/23 09:53:05;;;;;;;8.55;7.25;;;;;;;29.47;34.65;96933.47;5056351;28;20059;-64
2021/07/23 09:55:34;;;;;;;11.27;8.43;;;;;;;28.32;36.53;96896.09;4981601;28;20145;-60
2021/07/23 09:58:05;;;;;;;9.93;7.22;;;;;;;28.33;36.78;96931.06;4989195;28;20057;-63
2021/07/23 10:00:41;;;;;;;8.82;7.65;;;;;;;27.83;37.31;96933.72;4990870;28;20074;-62
2021/07/23 10:03:16;;;;;;;11.05;8.15;;;;;;;27.89;37.41;96886.22;4985418;28;20056;-61
2021/07/23 10:06:07;;;;;;;9.15;7.88;;;;;;;27.31;36.95;96863.31;4993542;28;20289;-65
2021/07/23 10:08:36;;;;;;;9.18;8.10;;;;;;;26.95;36.33;96641.75;4988458;28;20046;-62
2021/07/23 10:11:05;;;;;;;12.65;10.90;;;;;;;29.26;35.19;96912.66;4990675;28;20297;-62
2021/07/23 10:13:37;;;;;;;9.18;8.10;;;;;;;29.23;34.38;96912.88;4989067;28;20053;-62
2021/07/23 10:16:10;;;;;;;11.23;7.15;;;;;;;28.49;35.20;96860.13;4987981;28;20551;-61
2021/07/23 10:18:38;;;;;;;10.85;7.35;;;;;;;28.90;34.39;96906.66;4992701;28;20148;-63
2021/07/23 10:21:06;;;;;;;9.85;7.35;;;;;;;28.06;36.21;96915.81;4991711;28;20413;-62
2021/07/23 10:23:35;;;;;;;7.13;6.45;;;;;;;28.27;35.98;96905.31;4984440;28;20543;-64
2021/07/23 10:26:03;;;;;;;7.28;6.45;;;;;;;28.37;36.08;96921.06;5000405;28;20061;-63
2021/07/23 10:28:45;;;;;;;13.70;7.00;;;;;;;27.98;37.71;96920.31;5000394;28;20669;-62
2021/07/23 10:31:22;;;;;;;9.20;6.97;;;;;;;28.51;36.51;96913.78;4983822;28;20513;-62
2021/07/23 10:33:56;;;;;;;11.30;7.93;;;;;;;27.74;36.49;96844.75;5035535;28;20091;-62
2021/07/23 10:36:25;;;;;;;9.85;7.82;;;;;;;28.53;36.08;96911.25;5063250;28;20505;-61
2021/07/23 10:39:04;;;;;;;9.35;6.05;;;;;;;28.28;36.20;96906.13;5063990;28;20048;-60
2021/07/23 10:41:42;;;;;;;8.95;7.60;;;;;;;28.03;36.38;96911.09;5079536;28;20048;-62
2021/07/23 10:44:21;;;;;;;7.63;6.93;;;;;;;27.71;36.83;96919.75;5079657;28;20502;-63
2021/07/23 10:46:47;;;;;;;7.22;5.85;;;;;;;26.91;37.16;96919.75;5079490;28;20052;-63
2021/07/23 10:49:26;;;;;;;8.07;7.05;;;;;;;27.12;37.11;96912.22;5052732;28;20048;-59
2021/07/23 10:51:53;;;;;;;9.23;8.32;;;;;;;27.38;36.44;96942.59;5069006;28;20877;-61
2021/07/23 10:54:22;;;;;;;8.77;7.60;;;;;;;26.34;37.82;96805.22;5072690;28;20040;-66
2021/07/23 10:57:00;;;;;;;8.77;7.40;;;;;;;26.70;39.23;96912.25;5079115;28;20067;-63
2021/07/23 10:59:40;;;;;;;8.45;7.55;;;;;;;26.96;39.09;96910.56;5079167;28;20040;-67
2021/07/23 11:02:18;;;;;;;9.43;7.80;;;;;;;26.84;39.89;96914.44;5087791;28;20047;-66
2021/07/23 11:04:46;;;;;;;7.90;6.60;;;;;;;26.30;40.73;96869.91;5101634;28;20052;-61
2021/07/23 11:07:15;;;;;;;8.73;6.85;;;;;;;26.34;40.49;96830.00;5102889;28;20047;-63
2021/07/23 11:09:45;;;;;;;9.43;6.72;;;;;;;27.09;40.44;96913.97;5102767;28;20578;-62
2021/07/23 11:12:16;;;;;;;10.00;7.20;;;;;;;27.11;40.14;96857.38;5102833;28;21296;-61
2021/07/23 11:14:50;;;;;;;12.52;6.50;;;;;;;27.16;39.97;96839.66;5103414;28;20446;-61
2021/07/23 11:17:17;;;;;;;8.82;7.47;;;;;;;27.17;39.82;96804.28;5101078;28;20087;-67
2021/07/23 11:19:49;;;;;;;9.63;6.75;;;;;;;27.92;39.73;96902.34;5102783;28;20047;-63
2021/07/23 11:22:26;;;;;;;8.75;7.03;;;;;;;27.95;39.53;96904.22;5105470;28;20428;-63
2021/07/23 11:24:57;;;;;;;6.45;5.90;;;;;;;27.68;38.80;96830.41;5105841;28;20052;-64
2021/07/23 11:27:28;;;;;;;7.10;6.53;;;;;;;28.10;38.88;96893.63;5107082;28;20130;-64
2021/07/23 11:29:56;;;;;;;10.52;6.55;;;;;;;27.81;39.04;96845.16;5105274;28;20127;-63
2021/07/23 11:32:23;;;;;;;7.13;6.18;;;;;;;28.53;39.25;96902.69;5105131;27;20051;-67
2021/07/23 11:35:10;;;;;;;6.35;5.85;;;;;;;28.08;38.94;96899.03;5105177;28;20094;-64
2021/07/23 11:37:36;;;;;;;7.75;6.97;;;;;;;27.64;38.56;96789.97;5105781;28;20052;-65
2021/07/23 11:40:09;;;;;;;9.35;6.53;;;;;;;27.93;39.40;96892.50;5095792;28;20108;-64
2021/07/23 11:42:38;;;;;;;9.25;7.38;;;;;;;27.89;38.09;96837.81;5106951;28;20422;-64
2021/07/23 11:45:09;;;;;;;9.63;6.60;;;;;;;28.61;37.34;96901.78;5104106;28;20096;-61
2021/07/23 11:47:41;;;;;;;10.32;6.72;;;;;;;28.14;37.88;96891.34;5105143;28;20073;-61
2021/07/23 11:50:09;;;;;;;9.20;6.10;;;;;;;27.57;39.24;96904.19;5106429;28;20130;-62
2021/07/23 11:52:37;;;;;;;8.02;5.85;;;;;;;27.38;39.26;96897.06;5105187;28;20047;-62
2021/07/23 11:55:11;;;;;;;8.20;5.72;;;;;;;27.55;39.54;96906.72;5106162;28;20525;-61
2021/07/23 11:57:40;;;;;;;7.07;5.38;;;;;;;27.22;39.64;96905.22;5106045;28;20551;-63
2021/07/23 12:00:24;;;;;;;6.25;5.72;;;;;;;27.36;40.13;96904.53;5106090;28;20548;-62
2021/07/23 12:02:52;;;;;;;6.70;5.63;;;;;;;27.69;39.35;96871.84;5106751;28;20066;-60
2021/07/23 12:05:21;;;;;;;9.60;6.72;;;;;;;28.22;39.32;96896.69;5105931;28;20053;-58
2021/07/23 12:08:01;;;;;;;6.63;5.53;;;;;;;28.36;39.17;96898.75;5105132;28;20040;-68